Home > Products > Valid Products > MTR

000
SAUS45 KTWC 010652
MTRSAD
METAR KSAD 010651Z AUTO 00000KT 10SM BKN070 OVC085 13/07 A2996 RMK
AO2 SLP116 T01280067 402110083





000
SAUS45 KTWC 010552
MTRSAD
METAR KSAD 010551Z AUTO 19003KT 10SM BKN075 OVC090 13/07 A2996 RMK
AO2 SLP114 60000 T01330067 10183 20133 51019





000
SAUS45 KTWC 010552
MTRSAD
METAR KSAD 010551Z AUTO 19003KT 10SM BKN075 OVC090 13/07 A2996 RMK
AO2 SLP114 60000 T01330067 10183 20133 51019





000
SAUS45 KTWC 010452
MTRSAD
METAR KSAD 010451Z AUTO 00000KT 10SM BKN080 OVC095 14/07 A2994 RMK
AO2 SLP109 T01440067





000
SAUS45 KTWC 010452
MTRSAD
METAR KSAD 010451Z AUTO 00000KT 10SM BKN080 OVC095 14/07 A2994 RMK
AO2 SLP109 T01440067





000
SAUS45 KTWC 010352
MTRSAD
METAR KSAD 010351Z AUTO 30009KT 10SM FEW050 BKN080 OVC095 14/07
A2992 RMK AO2 RAB14E25 SLP104 P0000 T01440067





000
SAUS45 KTWC 010352
MTRSAD
METAR KSAD 010351Z AUTO 30009KT 10SM FEW050 BKN080 OVC095 14/07
A2992 RMK AO2 RAB14E25 SLP104 P0000 T01440067





000
SAUS45 KTWC 010252
MTRSAD
METAR KSAD 010251Z AUTO 31011KT 10SM FEW070 OVC095 15/07 A2990 RMK
AO2 RAB06E15 SLP096 P0000 60000 T01500067 53022





000
SAUS45 KTWC 010252
MTRSAD
METAR KSAD 010251Z AUTO 31011KT 10SM FEW070 OVC095 15/07 A2990 RMK
AO2 RAB06E15 SLP096 P0000 60000 T01500067 53022





000
SAUS45 KTWC 010152
MTRSAD
METAR KSAD 010151Z AUTO 32012KT 10SM OVC100 16/06 A2987 RMK AO2
SLP088 T01610056





000
SAUS45 KTWC 010052
MTRSAD
METAR KSAD 010051Z AUTO 32013KT 10SM BKN100 OVC110 17/05 A2984 RMK
AO2 SLP078 T01670050





000
SAUS45 KTWC 010052
MTRSAD
METAR KSAD 010051Z AUTO 32013KT 10SM BKN100 OVC110 17/05 A2984 RMK
AO2 SLP078 T01670050





000
SAUS45 KTWC 282352
MTRSAD
METAR KSAD 282351Z AUTO 33013KT 10SM OVC095 18/04 A2983 RMK AO2
SLP073 T01830044 10211 20178 53002





000
SAUS45 KTWC 282352
MTRSAD
METAR KSAD 282351Z AUTO 33013KT 10SM OVC095 18/04 A2983 RMK AO2
SLP073 T01830044 10211 20178 53002





000
SAUS45 KTWC 282253
MTRSAD
METAR KSAD 282251Z AUTO 32012KT 10SM BKN090 OVC110 19/04 A2982 RMK
AO2 SLP071 T01940039





000
SAUS45 KTWC 282253
MTRSAD
METAR KSAD 282251Z AUTO 32012KT 10SM BKN090 OVC110 19/04 A2982 RMK
AO2 SLP071 T01940039





000
SAUS45 KTWC 282153
MTRSAD
METAR KSAD 282151Z AUTO 33007KT 10SM FEW080 BKN095 19/03 A2982 RMK
AO2 SLP070 T01940033





000
SAUS45 KTWC 282153
MTRSAD
METAR KSAD 282151Z AUTO 33007KT 10SM FEW080 BKN095 19/03 A2982 RMK
AO2 SLP070 T01940033





000
SAUS45 KTWC 282052
MTRSAD
METAR KSAD 282051Z AUTO 34012KT 10SM OVC075 19/03 A2982 RMK AO2
SLP068 T01890033 58010





000
SAUS45 KTWC 281952
MTRSAD
METAR KSAD 281951Z AUTO 31005KT 10SM OVC085 19/02 A2983 RMK AO2
SLP074 T01890022





000
SAUS45 KTWC 281952
MTRSAD
METAR KSAD 281951Z AUTO 31005KT 10SM OVC085 19/02 A2983 RMK AO2
SLP074 T01890022





000
SAUS45 KTWC 281852
MTRSAD
METAR KSAD 281851Z AUTO VRB06KT 10SM BKN085 BKN100 19/03 A2985 RMK
AO2 SLP077 T01940028





000
SAUS45 KTWC 281852
MTRSAD
METAR KSAD 281851Z AUTO VRB06KT 10SM BKN085 BKN100 19/03 A2985 RMK
AO2 SLP077 T01940028





000
SAUS45 KTWC 281752
MTRSAD
METAR KSAD 281751Z AUTO 06004KT 10SM BKN080 18/03 A2985 RMK AO2
SLP077 T01830028 10194 20094 50011





000
SAUS45 KTWC 281752
MTRSAD
METAR KSAD 281751Z AUTO 06004KT 10SM BKN080 18/03 A2985 RMK AO2
SLP077 T01830028 10194 20094 50011





000
SAUS45 KTWC 281652
MTRSAD
METAR KSAD 281651Z AUTO VRB03KT 10SM FEW080 17/03 A2986 RMK AO2
SLP079 T01670028





000
SAUS45 KTWC 281652
MTRSAD
METAR KSAD 281651Z AUTO VRB03KT 10SM FEW080 17/03 A2986 RMK AO2
SLP079 T01670028





000
SAUS45 KTWC 281552
MTRSAD
METAR KSAD 281551Z AUTO 16008KT 10SM CLR 14/03 A2985 RMK AO2 SLP080
T01390028





000
SAUS45 KTWC 281452
MTRSAD
METAR KSAD 281451Z AUTO 18009KT 10SM CLR 13/03 A2981 RMK AO2 SLP069
T01330028 53014





000
SAUS45 KTWC 281452
MTRSAD
METAR KSAD 281451Z AUTO 18009KT 10SM CLR 13/03 A2981 RMK AO2 SLP069
T01330028 53014





000
SAUS45 KTWC 281352
MTRSAD
METAR KSAD 281351Z AUTO 16012KT 10SM SCT100 12/03 A2980 RMK AO2
SLP063 T01220033





000
SAUS45 KTWC 281352
MTRSAD
METAR KSAD 281351Z AUTO 16012KT 10SM SCT100 12/03 A2980 RMK AO2
SLP063 T01220033





000
SAUS45 KTWC 281252
MTRSAD
METAR KSAD 281251Z AUTO 13008KT 10SM CLR 11/03 A2978 RMK AO2 SLP056
T01060033





000
SAUS45 KTWC 281252
MTRSAD
METAR KSAD 281251Z AUTO 13008KT 10SM CLR 11/03 A2978 RMK AO2 SLP056
T01060033





000
SAUS45 KTWC 281152
MTRSAD
METAR KSAD 281151Z AUTO 10006KT 10SM CLR 09/02 A2977 RMK AO2 SLP052
T00940022 10139 20083 51003





000
SAUS45 KTWC 281152
MTRSAD
METAR KSAD 281151Z AUTO 10006KT 10SM CLR 09/02 A2977 RMK AO2 SLP052
T00940022 10139 20083 51003





000
SAUS45 KTWC 281053
MTRSAD
METAR KSAD 281051Z AUTO 08007KT 10SM CLR 09/01 A2977 RMK AO2 SLP052
T00890011





000
SAUS45 KTWC 281053
MTRSAD
METAR KSAD 281051Z AUTO 08007KT 10SM CLR 09/01 A2977 RMK AO2 SLP052
T00890011





000
SAUS45 KTWC 280953
MTRSAD
METAR KSAD 280951Z AUTO 07005KT 10SM CLR 09/01 A2976 RMK AO2 SLP051
T00890006





000
SAUS45 KTWC 280852
MTRSAD
METAR KSAD 280851Z AUTO 08003KT 10SM CLR 11/01 A2976 RMK AO2 SLP049
T01110006 53003





000
SAUS45 KTWC 280752
MTRSAD
METAR KSAD 280751Z AUTO 05005KT 10SM FEW080 11/00 A2975 RMK AO2
SLP051 T01060000





000
SAUS45 KTWC 280652
MTRSAD
METAR KSAD 280651Z AUTO 10006KT 10SM SCT085 12/M01 A2975 RMK AO2
SLP050 T01171006 402110056





000
SAUS45 KTWC 280652
MTRSAD
METAR KSAD 280651Z AUTO 10006KT 10SM SCT085 12/M01 A2975 RMK AO2
SLP050 T01171006 402110056





000
SAUS45 KTWC 280553
MTRSAD
METAR KSAD 280551Z AUTO 00000KT 10SM BKN090 13/M01 A2975 RMK AO2
SLP048 T01331011 10206 20128 51016





000
SAUS45 KTWC 280553
MTRSAD
METAR KSAD 280551Z AUTO 00000KT 10SM BKN090 13/M01 A2975 RMK AO2
SLP048 T01331011 10206 20128 51016





000
SAUS45 KTWC 280452
MTRSAD
METAR KSAD 280451Z AUTO 19004KT 10SM CLR 15/M01 A2974 RMK AO2 SLP045
T01501011





000
SAUS45 KTWC 280452
MTRSAD
METAR KSAD 280451Z AUTO 19004KT 10SM CLR 15/M01 A2974 RMK AO2 SLP045
T01501011





000
SAUS45 KTWC 280352
MTRSAD
METAR KSAD 280351Z AUTO 34005KT 10SM BKN095 15/M01 A2972 RMK AO2
SLP040 T01501011





000
SAUS45 KTWC 280352
MTRSAD
METAR KSAD 280351Z AUTO 34005KT 10SM BKN095 15/M01 A2972 RMK AO2
SLP040 T01501011





000
SAUS45 KTWC 280252
MTRSAD
METAR KSAD 280251Z AUTO 00000KT 10SM CLR 14/M01 A2970 RMK AO2 SLP038
T01391011 53013





000
SAUS45 KTWC 280252
MTRSAD
METAR KSAD 280251Z AUTO 00000KT 10SM CLR 14/M01 A2970 RMK AO2 SLP038
T01391011 53013





000
SAUS45 KTWC 280153
MTRSAD
METAR KSAD 280151Z AUTO 09006KT 10SM CLR 15/M01 A2968 RMK AO2 SLP030
T01501011





000
SAUS45 KTWC 280153
MTRSAD
METAR KSAD 280151Z AUTO 09006KT 10SM CLR 15/M01 A2968 RMK AO2 SLP030
T01501011





000
SAUS45 KTWC 280052
MTRSAD
METAR KSAD 280051Z AUTO 10003KT 10SM CLR 18/M03 A2966 RMK AO2 SLP020
T01831028





000
SAUS45 KTWC 280052
MTRSAD
METAR KSAD 280051Z AUTO 10003KT 10SM CLR 18/M03 A2966 RMK AO2 SLP020
T01831028





000
SAUS45 KTWC 272353
MTRSAD
METAR KSAD 272351Z AUTO 11003KT 10SM CLR 20/M04 A2966 RMK AO2 SLP017
T02001044 10211 20128 56024





000
SAUS45 KTWC 272353
MTRSAD
METAR KSAD 272351Z AUTO 11003KT 10SM CLR 20/M04 A2966 RMK AO2 SLP017
T02001044 10211 20128 56024





000
SAUS45 KTWC 272253
MTRSAD
METAR KSAD 272251Z AUTO 17003KT 10SM CLR 20/M04 A2967 RMK AO2 SLP020
T02001044





000
SAUS45 KTWC 272253
MTRSAD
METAR KSAD 272251Z AUTO 17003KT 10SM CLR 20/M04 A2967 RMK AO2 SLP020
T02001044





000
SAUS45 KTWC 272152
MTRSAD
METAR KSAD 272151Z AUTO VRB05KT 10SM CLR 19/M04 A2969 RMK AO2 SLP029
T01941044





000
SAUS45 KTWC 272152
MTRSAD
METAR KSAD 272151Z AUTO VRB05KT 10SM CLR 19/M04 A2969 RMK AO2 SLP029
T01941044





000
SAUS45 KTWC 272052
MTRSAD
METAR KSAD 272051Z AUTO 08008KT 10SM CLR 18/M03 A2974 RMK AO2 SLP047
T01831033 58044





000
SAUS45 KTWC 272052
MTRSAD
METAR KSAD 272051Z AUTO 08008KT 10SM CLR 18/M03 A2974 RMK AO2 SLP047
T01831033 58044





000
SAUS45 KTWC 271952
MTRSAD
METAR KSAD 271951Z AUTO 10007KT 10SM CLR 16/M03 A2980 RMK AO2 SLP065
T01561033





000
SAUS45 KTWC 271952
MTRSAD
METAR KSAD 271951Z AUTO 10007KT 10SM CLR 16/M03 A2980 RMK AO2 SLP065
T01561033





000
SAUS45 KTWC 271852
MTRSAD
METAR KSAD 271851Z AUTO 12010G16KT 10SM CLR 14/M03 A2984 RMK AO2
SLP083 T01441028





000
SAUS45 KTWC 271852
MTRSAD
METAR KSAD 271851Z AUTO 12010G16KT 10SM CLR 14/M03 A2984 RMK AO2
SLP083 T01441028





000
SAUS45 KTWC 271752
MTRSAD
METAR KSAD 271751Z AUTO 09011KT 10SM CLR 13/M03 A2988 RMK AO2 SLP096
T01281033 10133 20056 50001





000
SAUS45 KTWC 271752
MTRSAD
METAR KSAD 271751Z AUTO 09011KT 10SM CLR 13/M03 A2988 RMK AO2 SLP096
T01281033 10133 20056 50001





000
SAUS45 KTWC 271652
MTRSAD
METAR KSAD 271651Z AUTO 09016KT 10SM CLR 11/M03 A2988 RMK AO2 SLP094
T01061028





000
SAUS45 KTWC 271652
MTRSAD
METAR KSAD 271651Z AUTO 09016KT 10SM CLR 11/M03 A2988 RMK AO2 SLP094
T01061028





000
SAUS45 KTWC 271552
MTRSAD
METAR KSAD 271551Z AUTO 11013KT 10SM CLR 09/M03 A2988 RMK AO2 SLP097
T00941028





000
SAUS45 KTWC 271452
MTRSAD
METAR KSAD 271451Z AUTO 12011KT 10SM CLR 07/M02 A2987 RMK AO2 SLP096
T00721022 51013





000
SAUS45 KTWC 271452
MTRSAD
METAR KSAD 271451Z AUTO 12011KT 10SM CLR 07/M02 A2987 RMK AO2 SLP096
T00721022 51013





000
SAUS45 KTWC 271352
MTRSAD
METAR KSAD 271351Z AUTO 14012KT 10SM CLR 06/M02 A2987 RMK AO2 SLP095
T00561022





000
SAUS45 KTWC 271352
MTRSAD
METAR KSAD 271351Z AUTO 14012KT 10SM CLR 06/M02 A2987 RMK AO2 SLP095
T00561022





000
SAUS45 KTWC 271252
MTRSAD
METAR KSAD 271251Z AUTO 15011KT 10SM CLR 06/M02 A2984 RMK AO2 SLP082
T00611017





000
SAUS45 KTWC 271153
MTRSAD
METAR KSAD 271151Z AUTO 14010KT 10SM CLR 07/M02 A2983 RMK AO2 SLP078
T00671017 10128 20056 53001





000
SAUS45 KTWC 271053
MTRSAD
METAR KSAD 271051Z AUTO 14009KT 10SM CLR 06/M01 A2983 RMK AO2 SLP078
T00611011





000
SAUS45 KTWC 271053
MTRSAD
METAR KSAD 271051Z AUTO 14009KT 10SM CLR 06/M01 A2983 RMK AO2 SLP078
T00611011





000
SAUS45 KTWC 270952
MTRSAD
METAR KSAD 270951Z AUTO 11008KT 10SM CLR 07/M01 A2983 RMK AO2 SLP077
T00671011





000
SAUS45 KTWC 270852
MTRSAD
METAR KSAD 270851Z AUTO 13006KT 10SM CLR 06/M02 A2983 RMK AO2 SLP079
T00611017 53006





000
SAUS45 KTWC 270752
MTRSAD
METAR KSAD 270751Z AUTO 32004KT 10SM CLR 09/M04 A2982 RMK AO2 SLP072
T00941039





000
SAUS45 KTWC 270652
MTRSAD
METAR KSAD 270651Z AUTO 31005KT 10SM CLR 10/M05 A2981 RMK AO2 SLP071
T01001050 402110022





000
SAUS45 KTWC 270553
MTRSAD
METAR KSAD 270551Z AUTO 25005KT 10SM CLR 12/M04 A2981 RMK AO2 SLP070
T01171044 10206 20117 53005





000
SAUS45 KTWC 270452
MTRSAD
METAR KSAD 270451Z AUTO 33005KT 10SM CLR 14/M04 A2980 RMK AO2 SLP066
T01441044





000
SAUS45 KTWC 270352
MTRSAD
METAR KSAD 270351Z AUTO 33011KT 10SM CLR 15/M02 A2980 RMK AO2 SLP066
T01501017





000
SAUS45 KTWC 270352
MTRSAD
METAR KSAD 270351Z AUTO 33011KT 10SM CLR 15/M02 A2980 RMK AO2 SLP066
T01501017





000
SAUS45 KTWC 270252
MTRSAD
METAR KSAD 270251Z AUTO 31008KT 10SM CLR 15/M01 A2979 RMK AO2 SLP071
T01501006 53006





000
SAUS45 KTWC 270152
MTRSAD
METAR KSAD 270151Z AUTO 32006KT 10SM CLR 16/M01 A2977 RMK AO2 SLP065
T01561006





000
SAUS45 KTWC 270052
MTRSAD
METAR KSAD 270051Z AUTO 33006KT 10SM CLR 19/M03 A2976 RMK AO2 SLP057
T01891033





000
SAUS45 KTWC 262352
MTRSAD
METAR KSAD 262351Z AUTO 32005KT 10SM CLR 20/M05 A2977 RMK AO2 SLP059
T02001050 10211 20133 56025





000
SAUS45 KTWC 262352
MTRSAD
METAR KSAD 262351Z AUTO 32005KT 10SM CLR 20/M05 A2977 RMK AO2 SLP059
T02001050 10211 20133 56025





000
SAUS45 KTWC 262252
MTRSAD
METAR KSAD 262251Z AUTO 08006KT 10SM CLR 20/M05 A2978 RMK AO2 SLP061
T02001050





000
SAUS45 KTWC 262252
MTRSAD
METAR KSAD 262251Z AUTO 08006KT 10SM CLR 20/M05 A2978 RMK AO2 SLP061
T02001050





000
SAUS45 KTWC 262052
MTRSAD
METAR KSAD 262051Z AUTO VRB04KT 10SM CLR 18/M04 A2985 RMK AO2 SLP086
T01831039 58039





000
SAUS45 KTWC 262052
MTRSAD
METAR KSAD 262051Z AUTO VRB04KT 10SM CLR 18/M04 A2985 RMK AO2 SLP086
T01831039 58039





000
SAUS45 KTWC 261953
MTRSAD
METAR KSAD 261951Z AUTO 15009KT 10SM CLR 17/M03 A2990 RMK AO2 SLP100
T01721028





000
SAUS45 KTWC 261853
MTRSAD
METAR KSAD 261851Z AUTO 12008KT 10SM CLR 16/00 A2995 RMK AO2 SLP117
T01610000





000
SAUS45 KTWC 261752
MTRSAD
METAR KSAD 261751Z AUTO 12006KT 10SM CLR 13/M01 A2998 RMK AO2 SLP132
T01331006 10139 20022 57007





000
SAUS45 KTWC 261652
MTRSAD
METAR KSAD 261651Z AUTO 12009KT 10SM CLR 12/M01 A2999 RMK AO2 SLP135
T01221011





000
SAUS45 KTWC 261652
MTRSAD
METAR KSAD 261651Z AUTO 12009KT 10SM CLR 12/M01 A2999 RMK AO2 SLP135
T01221011





000
SAUS45 KTWC 261552
MTRSAD
METAR KSAD 261551Z AUTO 11011KT 10SM CLR 10/M02 A3000 RMK AO2 SLP140
T01001017





000
SAUS45 KTWC 261452
MTRSAD
METAR KSAD 261451Z AUTO 16004KT 10SM CLR 05/01 A3000 RMK AO2 SLP146
T00500006 53009





000
SAUS45 KTWC 261452
MTRSAD
METAR KSAD 261451Z AUTO 16004KT 10SM CLR 05/01 A3000 RMK AO2 SLP146
T00500006 53009





000
SAUS45 KTWC 261352
MTRSAD
METAR KSAD 261351Z AUTO 14005KT 10SM CLR 03/00 A2999 RMK AO2 SLP143
T00280000





000
SAUS45 KTWC 261254
MTRSAD
METAR KSAD 261251Z AUTO 09004KT 10SM CLR 04/00 A2998 RMK AO2 SLP136
T00390000





000
SAUS45 KTWC 261254
MTRSAD
METAR KSAD 261251Z AUTO 09004KT 10SM CLR 04/00 A2998 RMK AO2 SLP136
T00390000





000
SAUS45 KTWC 261153
MTRSAD
METAR KSAD 261151Z AUTO 08006KT 10SM CLR 04/01 A2997 RMK AO2 SLP130
T00440006 10100 20039 56003





000
SAUS45 KTWC 260953
MTRSAD
METAR KSAD 260951Z AUTO 10004KT 10SM CLR 06/01 A2997 RMK AO2 SLP128
T00560011





000
SAUS45 KTWC 260953
MTRSAD
METAR KSAD 260951Z AUTO 10004KT 10SM CLR 06/01 A2997 RMK AO2 SLP128
T00560011





000
SAUS45 KTWC 260852
MTRSAD
METAR KSAD 260851Z AUTO 27007KT 10SM CLR 07/01 A2998 RMK AO2 SLP131
T00720006 55004





000
SAUS45 KTWC 260852
MTRSAD
METAR KSAD 260851Z AUTO 27007KT 10SM CLR 07/01 A2998 RMK AO2 SLP131
T00720006 55004





000
SAUS45 KTWC 260752
MTRSAD
METAR KSAD 260751Z AUTO 35008KT 10SM CLR 10/M01 A2998 RMK AO2 SLP129
T01001006





    US Dept of Commerce
    National Oceanic and Atmospheric Administration
    National Weather Service
    1325 East West Highway
    Silver Spring, MD 20910
    Page Author: NWS Internet Services Team
Disclaimer
Information Quality
Credits
Glossary
Privacy Policy
Freedom of Information Act (FOIA)
About Us
Career Opportunities